sensor_id;sensor_type;location;lat;lon;timestamp;P1;durP1;ratioP1;P2;durP2;ratioP2
23328;SDS011;11836;51.050;3.716;2023-03-23T00:03:40;1.58;;;1.00;;
23328;SDS011;11836;51.050;3.716;2023-03-23T00:06:08;1.45;;;0.80;;
23328;SDS011;11836;51.050;3.716;2023-03-23T00:08:36;1.30;;;0.82;;
23328;SDS011;11836;51.050;3.716;2023-03-23T00:11:11;1.77;;;0.80;;
23328;SDS011;11836;51.050;3.716;2023-03-23T00:13:49;1.80;;;0.80;;
23328;SDS011;11836;51.050;3.716;2023-03-23T00:16:20;0.82;;;0.80;;
23328;SDS011;11836;51.050;3.716;2023-03-23T00:18:59;1.17;;;0.88;;
23328;SDS011;11836;51.050;3.716;2023-03-23T00:21:31;3.28;;;1.17;;
23328;SDS011;11836;51.050;3.716;2023-03-23T00:26:28;2.95;;;1.15;;
23328;SDS011;11836;51.050;3.716;2023-03-23T00:31:40;1.40;;;0.70;;
23328;SDS011;11836;51.050;3.716;2023-03-23T00:34:06;1.05;;;0.95;;
23328;SDS011;11836;51.050;3.716;2023-03-23T00:36:38;2.08;;;0.80;;
23328;SDS011;11836;51.050;3.716;2023-03-23T00:39:08;0.80;;;0.70;;
23328;SDS011;11836;51.050;3.716;2023-03-23T00:41:46;1.48;;;1.00;;
23328;SDS011;11836;51.050;3.716;2023-03-23T00:44:20;0.95;;;0.82;;
23328;SDS011;11836;51.050;3.716;2023-03-23T00:46:48;0.98;;;0.60;;
23328;SDS011;11836;51.050;3.716;2023-03-23T00:49:20;1.25;;;0.80;;
23328;SDS011;11836;51.050;3.716;2023-03-23T00:51:52;1.05;;;0.93;;
23328;SDS011;11836;51.050;3.716;2023-03-23T00:54:21;1.20;;;0.90;;
23328;SDS011;11836;51.050;3.716;2023-03-23T00:56:48;1.08;;;0.80;;
23328;SDS011;11836;51.050;3.716;2023-03-23T01:01:58;1.25;;;0.95;;
23328;SDS011;11836;51.050;3.716;2023-03-23T01:04:26;0.95;;;0.60;;
23328;SDS011;11836;51.050;3.716;2023-03-23T01:06:54;1.15;;;0.73;;
23328;SDS011;11836;51.050;3.716;2023-03-23T01:09:28;0.88;;;0.50;;
23328;SDS011;11836;51.050;3.716;2023-03-23T01:11:53;1.20;;;0.73;;
23328;SDS011;11836;51.050;3.716;2023-03-23T01:14:20;0.93;;;0.63;;
23328;SDS011;11836;51.050;3.716;2023-03-23T01:16:51;1.75;;;0.75;;
23328;SDS011;11836;51.050;3.716;2023-03-23T01:19:20;1.27;;;0.77;;
23328;SDS011;11836;51.050;3.716;2023-03-23T01:21:46;1.13;;;0.80;;
23328;SDS011;11836;51.050;3.716;2023-03-23T01:24:12;1.00;;;0.90;;
23328;SDS011;11836;51.050;3.716;2023-03-23T01:26:41;1.10;;;0.88;;
23328;SDS011;11836;51.050;3.716;2023-03-23T01:29:07;1.23;;;0.95;;
23328;SDS011;11836;51.050;3.716;2023-03-23T01:31:32;0.88;;;0.88;;
23328;SDS011;11836;51.050;3.716;2023-03-23T01:34:01;1.75;;;0.95;;
23328;SDS011;11836;51.050;3.716;2023-03-23T01:36:29;2.05;;;0.80;;
23328;SDS011;11836;51.050;3.716;2023-03-23T01:38:58;0.75;;;0.73;;
23328;SDS011;11836;51.050;3.716;2023-03-23T01:41:29;1.83;;;0.80;;
23328;SDS011;11836;51.050;3.716;2023-03-23T01:46:33;0.98;;;0.80;;
23328;SDS011;11836;51.050;3.716;2023-03-23T01:49:21;1.17;;;1.00;;
23328;SDS011;11836;51.050;3.716;2023-03-23T01:52:06;1.15;;;0.85;;
23328;SDS011;11836;51.050;3.716;2023-03-23T01:54:46;0.65;;;0.52;;
23328;SDS011;11836;51.050;3.716;2023-03-23T01:57:18;1.33;;;0.70;;
23328;SDS011;11836;51.050;3.716;2023-03-23T01:59:56;1.08;;;0.90;;
23328;SDS011;11836;51.050;3.716;2023-03-23T02:02:26;1.38;;;0.80;;
23328;SDS011;11836;51.050;3.716;2023-03-23T02:04:55;0.60;;;0.50;;
23328;SDS011;11836;51.050;3.716;2023-03-23T02:10:04;0.90;;;0.70;;
23328;SDS011;11836;51.050;3.716;2023-03-23T02:12:33;1.00;;;0.57;;
23328;SDS011;11836;51.050;3.716;2023-03-23T02:15:00;0.73;;;0.50;;
23328;SDS011;11836;51.050;3.716;2023-03-23T02:17:53;1.35;;;0.65;;
23328;SDS011;11836;51.050;3.716;2023-03-23T02:26:11;0.82;;;0.65;;
23328;SDS011;11836;51.050;3.716;2023-03-23T02:31:40;2.15;;;0.80;;
23328;SDS011;11836;51.050;3.716;2023-03-23T02:34:28;1.92;;;0.80;;
23328;SDS011;11836;51.050;3.716;2023-03-23T02:37:21;0.55;;;0.32;;
23328;SDS011;11836;51.050;3.716;2023-03-23T02:40:25;0.80;;;0.60;;
23328;SDS011;11836;51.050;3.716;2023-03-23T02:42:51;1.48;;;0.50;;
23328;SDS011;11836;51.050;3.716;2023-03-23T02:45:21;0.70;;;0.60;;
23328;SDS011;11836;51.050;3.716;2023-03-23T02:47:52;1.88;;;0.60;;
23328;SDS011;11836;51.050;3.716;2023-03-23T02:50:27;0.95;;;0.50;;
23328;SDS011;11836;51.050;3.716;2023-03-23T02:53:00;1.60;;;0.57;;
23328;SDS011;11836;51.050;3.716;2023-03-23T02:55:28;2.17;;;0.70;;
23328;SDS011;11836;51.050;3.716;2023-03-23T02:57:56;1.05;;;0.65;;
23328;SDS011;11836;51.050;3.716;2023-03-23T03:00:27;1.00;;;0.73;;
23328;SDS011;11836;51.050;3.716;2023-03-23T03:02:55;0.57;;;0.57;;
23328;SDS011;11836;51.050;3.716;2023-03-23T03:08:24;1.25;;;0.70;;
23328;SDS011;11836;51.050;3.716;2023-03-23T03:10:56;1.23;;;0.60;;
23328;SDS011;11836;51.050;3.716;2023-03-23T03:22:16;1.05;;;0.65;;
23328;SDS011;11836;51.050;3.716;2023-03-23T03:24:53;0.95;;;0.60;;
23328;SDS011;11836;51.050;3.716;2023-03-23T03:27:25;1.05;;;0.60;;
23328;SDS011;11836;51.050;3.716;2023-03-23T03:29:55;1.33;;;0.80;;
23328;SDS011;11836;51.050;3.716;2023-03-23T03:32:47;0.63;;;0.50;;
23328;SDS011;11836;51.050;3.716;2023-03-23T03:35:24;1.35;;;0.70;;
23328;SDS011;11836;51.050;3.716;2023-03-23T03:37:51;1.52;;;0.68;;
23328;SDS011;11836;51.050;3.716;2023-03-23T03:40:24;1.27;;;0.68;;
23328;SDS011;11836;51.050;3.716;2023-03-23T03:43:06;1.17;;;0.70;;
23328;SDS011;11836;51.050;3.716;2023-03-23T03:45:32;0.68;;;0.50;;
23328;SDS011;11836;51.050;3.716;2023-03-23T03:48:00;1.17;;;0.63;;
23328;SDS011;11836;51.050;3.716;2023-03-23T03:50:31;1.02;;;0.52;;
23328;SDS011;11836;51.050;3.716;2023-03-23T03:53:01;1.50;;;0.60;;
23328;SDS011;11836;51.050;3.716;2023-03-23T03:55:30;1.00;;;0.73;;
23328;SDS011;11836;51.050;3.716;2023-03-23T03:58:00;2.55;;;0.52;;
23328;SDS011;11836;51.050;3.716;2023-03-23T04:00:27;0.77;;;0.50;;
23328;SDS011;11836;51.050;3.716;2023-03-23T04:05:28;1.65;;;0.80;;
23328;SDS011;11836;51.050;3.716;2023-03-23T04:07:54;1.15;;;0.65;;
23328;SDS011;11836;51.050;3.716;2023-03-23T04:13:12;1.95;;;0.82;;
23328;SDS011;11836;51.050;3.716;2023-03-23T04:15:42;3.05;;;0.60;;
23328;SDS011;11836;51.050;3.716;2023-03-23T04:18:09;2.15;;;0.68;;
23328;SDS011;11836;51.050;3.716;2023-03-23T04:20:41;1.63;;;0.77;;
23328;SDS011;11836;51.050;3.716;2023-03-23T04:23:15;1.20;;;0.60;;
23328;SDS011;11836;51.050;3.716;2023-03-23T04:25:47;1.17;;;0.45;;
23328;SDS011;11836;51.050;3.716;2023-03-23T04:28:18;0.88;;;0.70;;
23328;SDS011;11836;51.050;3.716;2023-03-23T04:30:49;0.95;;;0.50;;
23328;SDS011;11836;51.050;3.716;2023-03-23T04:33:18;2.45;;;0.60;;
23328;SDS011;11836;51.050;3.716;2023-03-23T04:35:46;0.82;;;0.65;;
23328;SDS011;11836;51.050;3.716;2023-03-23T04:38:13;1.15;;;0.50;;
23328;SDS011;11836;51.050;3.716;2023-03-23T04:43:27;3.65;;;0.50;;
23328;SDS011;11836;51.050;3.716;2023-03-23T04:45:56;3.15;;;0.80;;
23328;SDS011;11836;51.050;3.716;2023-03-23T04:48:28;0.60;;;0.50;;
23328;SDS011;11836;51.050;3.716;2023-03-23T04:50:55;3.70;;;1.00;;
23328;SDS011;11836;51.050;3.716;2023-03-23T04:53:21;1.48;;;0.75;;
23328;SDS011;11836;51.050;3.716;2023-03-23T04:55:47;1.15;;;0.45;;
23328;SDS011;11836;51.050;3.716;2023-03-23T04:58:14;1.52;;;0.50;;
23328;SDS011;11836;51.050;3.716;2023-03-23T05:00:41;2.75;;;0.70;;
23328;SDS011;11836;51.050;3.716;2023-03-23T05:03:15;3.97;;;0.88;;
23328;SDS011;11836;51.050;3.716;2023-03-23T05:05:47;2.35;;;0.50;;
23328;SDS011;11836;51.050;3.716;2023-03-23T05:08:17;0.65;;;0.47;;
23328;SDS011;11836;51.050;3.716;2023-03-23T05:10:55;1.52;;;0.60;;
23328;SDS011;11836;51.050;3.716;2023-03-23T05:13:26;1.88;;;0.50;;
23328;SDS011;11836;51.050;3.716;2023-03-23T05:15:52;1.20;;;0.80;;
23328;SDS011;11836;51.050;3.716;2023-03-23T05:18:18;1.05;;;0.60;;
23328;SDS011;11836;51.050;3.716;2023-03-23T05:20:45;1.27;;;0.65;;
23328;SDS011;11836;51.050;3.716;2023-03-23T05:23:15;2.40;;;0.80;;
23328;SDS011;11836;51.050;3.716;2023-03-23T05:25:40;2.10;;;0.77;;
23328;SDS011;11836;51.050;3.716;2023-03-23T05:28:07;1.92;;;0.70;;
23328;SDS011;11836;51.050;3.716;2023-03-23T05:30:34;3.35;;;0.70;;
23328;SDS011;11836;51.050;3.716;2023-03-23T05:33:00;1.30;;;0.60;;
23328;SDS011;11836;51.050;3.716;2023-03-23T05:35:26;0.80;;;0.40;;
23328;SDS011;11836;51.050;3.716;2023-03-23T05:37:52;1.92;;;0.70;;
23328;SDS011;11836;51.050;3.716;2023-03-23T05:40:22;1.55;;;0.82;;
23328;SDS011;11836;51.050;3.716;2023-03-23T05:42:50;1.52;;;0.80;;
23328;SDS011;11836;51.050;3.716;2023-03-23T05:45:17;1.55;;;0.80;;
23328;SDS011;11836;51.050;3.716;2023-03-23T05:47:43;2.28;;;0.70;;
23328;SDS011;11836;51.050;3.716;2023-03-23T05:50:09;2.50;;;0.73;;
23328;SDS011;11836;51.050;3.716;2023-03-23T05:52:37;0.88;;;0.63;;
23328;SDS011;11836;51.050;3.716;2023-03-23T05:55:04;1.05;;;0.70;;
23328;SDS011;11836;51.050;3.716;2023-03-23T05:57:31;2.35;;;0.70;;
23328;SDS011;11836;51.050;3.716;2023-03-23T05:59:57;1.75;;;0.90;;
23328;SDS011;11836;51.050;3.716;2023-03-23T06:02:25;0.93;;;0.52;;
23328;SDS011;11836;51.050;3.716;2023-03-23T06:04:54;1.40;;;0.60;;
23328;SDS011;11836;51.050;3.716;2023-03-23T06:07:28;1.42;;;0.68;;
23328;SDS011;11836;51.050;3.716;2023-03-23T06:09:54;1.23;;;0.65;;
23328;SDS011;11836;51.050;3.716;2023-03-23T06:12:20;3.30;;;1.00;;
23328;SDS011;11836;51.050;3.716;2023-03-23T06:14:47;1.10;;;0.60;;
23328;SDS011;11836;51.050;3.716;2023-03-23T06:17:16;1.40;;;0.57;;
23328;SDS011;11836;51.050;3.716;2023-03-23T06:19:42;0.70;;;0.38;;
23328;SDS011;11836;51.050;3.716;2023-03-23T06:22:10;1.75;;;0.70;;
23328;SDS011;11836;51.050;3.716;2023-03-23T06:24:36;2.28;;;0.68;;
23328;SDS011;11836;51.050;3.716;2023-03-23T06:27:02;1.42;;;0.60;;
23328;SDS011;11836;51.050;3.716;2023-03-23T06:29:29;2.15;;;0.60;;
23328;SDS011;11836;51.050;3.716;2023-03-23T06:32:00;1.95;;;0.60;;
23328;SDS011;11836;51.050;3.716;2023-03-23T06:34:27;2.10;;;0.65;;
23328;SDS011;11836;51.050;3.716;2023-03-23T06:36:57;1.38;;;0.55;;
23328;SDS011;11836;51.050;3.716;2023-03-23T06:39:23;1.33;;;0.60;;
23328;SDS011;11836;51.050;3.716;2023-03-23T06:41:49;1.08;;;0.50;;
23328;SDS011;11836;51.050;3.716;2023-03-23T06:44:15;2.10;;;0.75;;
23328;SDS011;11836;51.050;3.716;2023-03-23T06:46:44;1.10;;;0.70;;
23328;SDS011;11836;51.050;3.716;2023-03-23T06:49:09;1.65;;;0.63;;
23328;SDS011;11836;51.050;3.716;2023-03-23T06:51:38;1.35;;;0.60;;
23328;SDS011;11836;51.050;3.716;2023-03-23T06:54:07;0.57;;;0.32;;
23328;SDS011;11836;51.050;3.716;2023-03-23T06:56:48;2.03;;;0.50;;
23328;SDS011;11836;51.050;3.716;2023-03-23T06:59:14;1.15;;;0.52;;
23328;SDS011;11836;51.050;3.716;2023-03-23T07:01:40;1.13;;;0.45;;
23328;SDS011;11836;51.050;3.716;2023-03-23T07:04:06;1.98;;;0.82;;
23328;SDS011;11836;51.050;3.716;2023-03-23T07:06:31;2.10;;;0.75;;
23328;SDS011;11836;51.050;3.716;2023-03-23T07:08:58;1.23;;;0.70;;
23328;SDS011;11836;51.050;3.716;2023-03-23T07:11:24;1.65;;;0.80;;
23328;SDS011;11836;51.050;3.716;2023-03-23T07:13:56;1.33;;;0.50;;
23328;SDS011;11836;51.050;3.716;2023-03-23T07:16:32;1.95;;;0.70;;
23328;SDS011;11836;51.050;3.716;2023-03-23T07:18:58;1.33;;;0.55;;
23328;SDS011;11836;51.050;3.716;2023-03-23T07:21:24;2.70;;;0.57;;
23328;SDS011;11836;51.050;3.716;2023-03-23T07:23:50;1.15;;;0.60;;
23328;SDS011;11836;51.050;3.716;2023-03-23T07:26:16;1.15;;;0.50;;
23328;SDS011;11836;51.050;3.716;2023-03-23T07:28:41;1.65;;;0.70;;
23328;SDS011;11836;51.050;3.716;2023-03-23T07:31:07;0.75;;;0.60;;
23328;SDS011;11836;51.050;3.716;2023-03-23T07:33:34;2.00;;;0.52;;
23328;SDS011;11836;51.050;3.716;2023-03-23T07:36:01;1.48;;;0.50;;
23328;SDS011;11836;51.050;3.716;2023-03-23T07:38:31;0.85;;;0.40;;
23328;SDS011;11836;51.050;3.716;2023-03-23T07:41:20;0.88;;;0.50;;
23328;SDS011;11836;51.050;3.716;2023-03-23T07:43:46;0.82;;;0.60;;
23328;SDS011;11836;51.050;3.716;2023-03-23T07:46:12;1.38;;;0.60;;
23328;SDS011;11836;51.050;3.716;2023-03-23T07:48:38;1.30;;;0.75;;
23328;SDS011;11836;51.050;3.716;2023-03-23T07:51:04;0.98;;;0.63;;
23328;SDS011;11836;51.050;3.716;2023-03-23T07:53:42;2.47;;;0.85;;
23328;SDS011;11836;51.050;3.716;2023-03-23T07:56:25;0.75;;;0.55;;
23328;SDS011;11836;51.050;3.716;2023-03-23T07:58:51;1.40;;;0.68;;
23328;SDS011;11836;51.050;3.716;2023-03-23T08:01:35;1.17;;;0.68;;
23328;SDS011;11836;51.050;3.716;2023-03-23T08:04:09;2.50;;;0.90;;
23328;SDS011;11836;51.050;3.716;2023-03-23T08:06:44;1.40;;;0.65;;
23328;SDS011;11836;51.050;3.716;2023-03-23T08:09:13;1.27;;;0.50;;
23328;SDS011;11836;51.050;3.716;2023-03-23T08:11:38;2.95;;;0.70;;
23328;SDS011;11836;51.050;3.716;2023-03-23T08:14:07;1.63;;;0.52;;
23328;SDS011;11836;51.050;3.716;2023-03-23T08:16:33;1.60;;;0.95;;
23328;SDS011;11836;51.050;3.716;2023-03-23T08:18:59;1.85;;;0.80;;
23328;SDS011;11836;51.050;3.716;2023-03-23T08:21:25;2.70;;;1.00;;
23328;SDS011;11836;51.050;3.716;2023-03-23T08:23:51;1.55;;;0.70;;
23328;SDS011;11836;51.050;3.716;2023-03-23T08:26:17;1.42;;;0.60;;
23328;SDS011;11836;51.050;3.716;2023-03-23T08:28:46;1.80;;;0.93;;
23328;SDS011;11836;51.050;3.716;2023-03-23T08:31:14;4.13;;;1.00;;
23328;SDS011;11836;51.050;3.716;2023-03-23T08:33:44;1.75;;;0.70;;
23328;SDS011;11836;51.050;3.716;2023-03-23T08:36:10;3.33;;;0.82;;
23328;SDS011;11836;51.050;3.716;2023-03-23T08:38:37;3.17;;;1.50;;
23328;SDS011;11836;51.050;3.716;2023-03-23T08:41:06;3.47;;;1.08;;
23328;SDS011;11836;51.050;3.716;2023-03-23T08:43:35;2.55;;;0.88;;
23328;SDS011;11836;51.050;3.716;2023-03-23T08:46:02;2.03;;;1.08;;
23328;SDS011;11836;51.050;3.716;2023-03-23T08:48:34;1.23;;;0.80;;
23328;SDS011;11836;51.050;3.716;2023-03-23T08:51:04;3.38;;;1.23;;
23328;SDS011;11836;51.050;3.716;2023-03-23T08:53:33;2.88;;;1.20;;
23328;SDS011;11836;51.050;3.716;2023-03-23T08:56:15;2.85;;;1.00;;
23328;SDS011;11836;51.050;3.716;2023-03-23T08:58:41;2.53;;;1.02;;
23328;SDS011;11836;51.050;3.716;2023-03-23T09:01:07;2.17;;;0.77;;
23328;SDS011;11836;51.050;3.716;2023-03-23T09:03:34;2.22;;;0.93;;
23328;SDS011;11836;51.050;3.716;2023-03-23T09:06:00;3.03;;;0.80;;
23328;SDS011;11836;51.050;3.716;2023-03-23T09:08:31;2.03;;;0.75;;
23328;SDS011;11836;51.050;3.716;2023-03-23T09:11:02;3.78;;;1.10;;
23328;SDS011;11836;51.050;3.716;2023-03-23T09:13:30;1.83;;;0.75;;
23328;SDS011;11836;51.050;3.716;2023-03-23T09:15:56;2.00;;;0.90;;
23328;SDS011;11836;51.050;3.716;2023-03-23T09:18:22;4.93;;;1.13;;
23328;SDS011;11836;51.050;3.716;2023-03-23T09:20:51;2.65;;;0.88;;
23328;SDS011;11836;51.050;3.716;2023-03-23T09:23:18;2.83;;;1.10;;
23328;SDS011;11836;51.050;3.716;2023-03-23T09:25:45;2.13;;;1.00;;
23328;SDS011;11836;51.050;3.716;2023-03-23T09:28:12;1.52;;;0.95;;
23328;SDS011;11836;51.050;3.716;2023-03-23T09:30:38;1.95;;;0.88;;
23328;SDS011;11836;51.050;3.716;2023-03-23T09:33:06;1.60;;;0.70;;
23328;SDS011;11836;51.050;3.716;2023-03-23T09:35:35;3.38;;;1.02;;
23328;SDS011;11836;51.050;3.716;2023-03-23T09:38:12;2.22;;;0.90;;
23328;SDS011;11836;51.050;3.716;2023-03-23T09:40:47;2.22;;;1.00;;
23328;SDS011;11836;51.050;3.716;2023-03-23T09:49:10;2.25;;;0.68;;
23328;SDS011;11836;51.050;3.716;2023-03-23T09:51:50;1.77;;;0.65;;
23328;SDS011;11836;51.050;3.716;2023-03-23T09:54:21;2.33;;;1.05;;
23328;SDS011;11836;51.050;3.716;2023-03-23T09:57:40;1.45;;;0.90;;
23328;SDS011;11836;51.050;3.716;2023-03-23T10:05:59;2.05;;;1.10;;
23328;SDS011;11836;51.050;3.716;2023-03-23T10:08:26;3.35;;;1.00;;
23328;SDS011;11836;51.050;3.716;2023-03-23T10:16:33;2.20;;;0.80;;
23328;SDS011;11836;51.050;3.716;2023-03-23T10:19:33;1.42;;;0.93;;
23328;SDS011;11836;51.050;3.716;2023-03-23T10:22:11;2.35;;;1.23;;
23328;SDS011;11836;51.050;3.716;2023-03-23T10:24:57;2.08;;;1.30;;
23328;SDS011;11836;51.050;3.716;2023-03-23T10:27:47;1.73;;;1.00;;
23328;SDS011;11836;51.050;3.716;2023-03-23T10:33:13;1.83;;;0.75;;
23328;SDS011;11836;51.050;3.716;2023-03-23T10:36:43;3.75;;;1.25;;
23328;SDS011;11836;51.050;3.716;2023-03-23T10:39:13;1.83;;;0.88;;
23328;SDS011;11836;51.050;3.716;2023-03-23T10:41:50;3.42;;;1.13;;
23328;SDS011;11836;51.050;3.716;2023-03-23T10:44:19;2.00;;;0.88;;
23328;SDS011;11836;51.050;3.716;2023-03-23T10:49:32;3.25;;;1.35;;
23328;SDS011;11836;51.050;3.716;2023-03-23T10:55:08;1.65;;;0.82;;
23328;SDS011;11836;51.050;3.716;2023-03-23T10:57:38;2.72;;;1.10;;
23328;SDS011;11836;51.050;3.716;2023-03-23T11:03:20;3.08;;;1.10;;
23328;SDS011;11836;51.050;3.716;2023-03-23T11:06:06;7.03;;;1.10;;
23328;SDS011;11836;51.050;3.716;2023-03-23T11:11:40;2.63;;;1.00;;
23328;SDS011;11836;51.050;3.716;2023-03-23T11:14:27;3.05;;;1.00;;
23328;SDS011;11836;51.050;3.716;2023-03-23T11:17:02;1.40;;;0.95;;
23328;SDS011;11836;51.050;3.716;2023-03-23T11:19:32;6.53;;;1.30;;
23328;SDS011;11836;51.050;3.716;2023-03-23T11:24:36;4.32;;;0.95;;
23328;SDS011;11836;51.050;3.716;2023-03-23T11:27:11;1.90;;;0.77;;
23328;SDS011;11836;51.050;3.716;2023-03-23T11:29:58;4.15;;;1.30;;
23328;SDS011;11836;51.050;3.716;2023-03-23T11:32:33;1.73;;;0.90;;
23328;SDS011;11836;51.050;3.716;2023-03-23T11:35:02;2.13;;;0.80;;
23328;SDS011;11836;51.050;3.716;2023-03-23T11:37:43;2.85;;;0.95;;
23328;SDS011;11836;51.050;3.716;2023-03-23T11:40:20;3.97;;;1.13;;
23328;SDS011;11836;51.050;3.716;2023-03-23T11:53:37;2.40;;;0.93;;
23328;SDS011;11836;51.050;3.716;2023-03-23T11:56:29;1.52;;;0.60;;
23328;SDS011;11836;51.050;3.716;2023-03-23T11:58:58;2.53;;;1.20;;
23328;SDS011;11836;51.050;3.716;2023-03-23T12:04:27;2.25;;;1.00;;
23328;SDS011;11836;51.050;3.716;2023-03-23T12:07:21;2.88;;;1.13;;
23328;SDS011;11836;51.050;3.716;2023-03-23T12:15:47;2.38;;;0.85;;
23328;SDS011;11836;51.050;3.716;2023-03-23T12:18:58;2.30;;;0.70;;
23328;SDS011;11836;51.050;3.716;2023-03-23T12:21:45;2.83;;;0.82;;
23328;SDS011;11836;51.050;3.716;2023-03-23T12:24:49;1.27;;;0.70;;
23328;SDS011;11836;51.050;3.716;2023-03-23T12:27:39;2.33;;;1.02;;
23328;SDS011;11836;51.050;3.716;2023-03-23T12:41:51;2.28;;;0.93;;
23328;SDS011;11836;51.050;3.716;2023-03-23T12:44:41;3.00;;;1.02;;
23328;SDS011;11836;51.050;3.716;2023-03-23T12:47:26;2.25;;;0.90;;
23328;SDS011;11836;51.050;3.716;2023-03-23T12:50:03;3.38;;;1.08;;
23328;SDS011;11836;51.050;3.716;2023-03-23T12:55:40;1.75;;;0.90;;
23328;SDS011;11836;51.050;3.716;2023-03-23T12:58:26;2.17;;;0.70;;
23328;SDS011;11836;51.050;3.716;2023-03-23T13:01:06;0.95;;;0.68;;
23328;SDS011;11836;51.050;3.716;2023-03-23T13:03:51;2.45;;;1.05;;
23328;SDS011;11836;51.050;3.716;2023-03-23T13:09:04;3.45;;;1.08;;
23328;SDS011;11836;51.050;3.716;2023-03-23T13:11:52;3.85;;;1.25;;
23328;SDS011;11836;51.050;3.716;2023-03-23T13:17:36;3.00;;;1.38;;
23328;SDS011;11836;51.050;3.716;2023-03-23T13:23:25;6.93;;;1.70;;
23328;SDS011;11836;51.050;3.716;2023-03-23T13:26:02;3.22;;;1.27;;
23328;SDS011;11836;51.050;3.716;2023-03-23T13:31:26;1.73;;;0.90;;
23328;SDS011;11836;51.050;3.716;2023-03-23T13:36:57;3.72;;;1.35;;
23328;SDS011;11836;51.050;3.716;2023-03-23T13:39:47;2.10;;;1.10;;
23328;SDS011;11836;51.050;3.716;2023-03-23T13:42:53;2.17;;;0.88;;
23328;SDS011;11836;51.050;3.716;2023-03-23T13:48:20;2.67;;;1.10;;
23328;SDS011;11836;51.050;3.716;2023-03-23T13:51:25;3.75;;;1.00;;
23328;SDS011;11836;51.050;3.716;2023-03-23T13:57:33;4.72;;;1.42;;
23328;SDS011;11836;51.050;3.716;2023-03-23T14:00:09;6.40;;;1.48;;
23328;SDS011;11836;51.050;3.716;2023-03-23T14:03:02;3.35;;;1.15;;
23328;SDS011;11836;51.050;3.716;2023-03-23T14:13:32;3.47;;;1.38;;
23328;SDS011;11836;51.050;3.716;2023-03-23T14:16:21;3.60;;;1.23;;
23328;SDS011;11836;51.050;3.716;2023-03-23T14:18:56;3.53;;;1.05;;
23328;SDS011;11836;51.050;3.716;2023-03-23T14:21:37;2.28;;;1.35;;
23328;SDS011;11836;51.050;3.716;2023-03-23T14:24:19;3.40;;;1.20;;
23328;SDS011;11836;51.050;3.716;2023-03-23T14:26:50;2.78;;;1.05;;
23328;SDS011;11836;51.050;3.716;2023-03-23T14:29:29;3.95;;;1.17;;
23328;SDS011;11836;51.050;3.716;2023-03-23T14:32:00;3.63;;;1.13;;
23328;SDS011;11836;51.050;3.716;2023-03-23T14:34:32;5.43;;;1.15;;
23328;SDS011;11836;51.050;3.716;2023-03-23T14:37:03;4.55;;;1.35;;
23328;SDS011;11836;51.050;3.716;2023-03-23T14:39:30;3.15;;;1.10;;
23328;SDS011;11836;51.050;3.716;2023-03-23T14:42:05;2.92;;;1.15;;
23328;SDS011;11836;51.050;3.716;2023-03-23T14:44:40;2.95;;;1.25;;
23328;SDS011;11836;51.050;3.716;2023-03-23T14:55:59;3.22;;;1.10;;
23328;SDS011;11836;51.050;3.716;2023-03-23T14:58:27;4.28;;;1.00;;
23328;SDS011;11836;51.050;3.716;2023-03-23T15:00:58;3.42;;;1.08;;
23328;SDS011;11836;51.050;3.716;2023-03-23T15:03:37;5.05;;;1.23;;
23328;SDS011;11836;51.050;3.716;2023-03-23T15:06:09;2.25;;;0.93;;
23328;SDS011;11836;51.050;3.716;2023-03-23T15:08:39;4.50;;;1.40;;
23328;SDS011;11836;51.050;3.716;2023-03-23T15:13:44;3.38;;;1.33;;
23328;SDS011;11836;51.050;3.716;2023-03-23T15:16:30;2.15;;;1.10;;
23328;SDS011;11836;51.050;3.716;2023-03-23T15:19:10;2.92;;;1.27;;
23328;SDS011;11836;51.050;3.716;2023-03-23T15:21:47;3.80;;;1.17;;
23328;SDS011;11836;51.050;3.716;2023-03-23T15:24:21;6.43;;;1.30;;
23328;SDS011;11836;51.050;3.716;2023-03-23T15:26:49;2.00;;;1.35;;
23328;SDS011;11836;51.050;3.716;2023-03-23T15:29:17;3.47;;;1.00;;
23328;SDS011;11836;51.050;3.716;2023-03-23T15:31:50;2.83;;;0.90;;
23328;SDS011;11836;51.050;3.716;2023-03-23T15:36:59;1.80;;;0.90;;
23328;SDS011;11836;51.050;3.716;2023-03-23T15:39:30;4.27;;;1.97;;
23328;SDS011;11836;51.050;3.716;2023-03-23T15:41:59;4.57;;;1.63;;
23328;SDS011;11836;51.050;3.716;2023-03-23T15:44:35;5.03;;;1.90;;
23328;SDS011;11836;51.050;3.716;2023-03-23T15:47:16;5.00;;;1.92;;
23328;SDS011;11836;51.050;3.716;2023-03-23T15:52:37;6.45;;;2.05;;
23328;SDS011;11836;51.050;3.716;2023-03-23T15:55:24;5.30;;;1.52;;
23328;SDS011;11836;51.050;3.716;2023-03-23T15:57:56;6.00;;;1.73;;
23328;SDS011;11836;51.050;3.716;2023-03-23T16:00:43;5.07;;;1.88;;
23328;SDS011;11836;51.050;3.716;2023-03-23T16:03:17;4.32;;;1.95;;
23328;SDS011;11836;51.050;3.716;2023-03-23T16:05:53;3.20;;;1.38;;
23328;SDS011;11836;51.050;3.716;2023-03-23T16:08:20;4.55;;;1.50;;
23328;SDS011;11836;51.050;3.716;2023-03-23T16:10:45;4.03;;;1.60;;
23328;SDS011;11836;51.050;3.716;2023-03-23T16:13:12;4.47;;;1.65;;
23328;SDS011;11836;51.050;3.716;2023-03-23T16:15:45;3.95;;;1.70;;
23328;SDS011;11836;51.050;3.716;2023-03-23T16:18:21;6.53;;;1.75;;
23328;SDS011;11836;51.050;3.716;2023-03-23T16:20:53;3.63;;;2.08;;
23328;SDS011;11836;51.050;3.716;2023-03-23T16:23:20;3.20;;;1.42;;
23328;SDS011;11836;51.050;3.716;2023-03-23T16:25:46;4.65;;;1.70;;
23328;SDS011;11836;51.050;3.716;2023-03-23T16:28:13;4.22;;;1.58;;
23328;SDS011;11836;51.050;3.716;2023-03-23T16:30:52;4.47;;;1.77;;
23328;SDS011;11836;51.050;3.716;2023-03-23T16:33:19;5.15;;;1.60;;
23328;SDS011;11836;51.050;3.716;2023-03-23T16:35:47;3.80;;;1.60;;
23328;SDS011;11836;51.050;3.716;2023-03-23T16:38:28;6.10;;;1.92;;
23328;SDS011;11836;51.050;3.716;2023-03-23T16:41:04;3.85;;;1.45;;
23328;SDS011;11836;51.050;3.716;2023-03-23T16:43:30;2.85;;;1.15;;
23328;SDS011;11836;51.050;3.716;2023-03-23T16:46:03;2.70;;;1.20;;
23328;SDS011;11836;51.050;3.716;2023-03-23T16:48:37;5.05;;;1.60;;
23328;SDS011;11836;51.050;3.716;2023-03-23T16:51:06;3.95;;;1.27;;
23328;SDS011;11836;51.050;3.716;2023-03-23T16:53:34;3.90;;;1.38;;
23328;SDS011;11836;51.050;3.716;2023-03-23T16:56:03;4.38;;;2.00;;
23328;SDS011;11836;51.050;3.716;2023-03-23T16:58:33;3.38;;;1.13;;
23328;SDS011;11836;51.050;3.716;2023-03-23T17:00:59;3.83;;;1.60;;
23328;SDS011;11836;51.050;3.716;2023-03-23T17:03:25;5.82;;;1.30;;
23328;SDS011;11836;51.050;3.716;2023-03-23T17:05:51;4.22;;;1.50;;
23328;SDS011;11836;51.050;3.716;2023-03-23T17:08:17;4.00;;;1.40;;
23328;SDS011;11836;51.050;3.716;2023-03-23T17:10:47;4.97;;;1.58;;
23328;SDS011;11836;51.050;3.716;2023-03-23T17:13:16;5.35;;;1.63;;
23328;SDS011;11836;51.050;3.716;2023-03-23T17:15:42;4.05;;;1.55;;
23328;SDS011;11836;51.050;3.716;2023-03-23T17:18:09;6.35;;;1.50;;
23328;SDS011;11836;51.050;3.716;2023-03-23T17:20:36;4.85;;;1.30;;
23328;SDS011;11836;51.050;3.716;2023-03-23T17:23:05;7.10;;;2.10;;
23328;SDS011;11836;51.050;3.716;2023-03-23T17:25:34;5.97;;;1.83;;
23328;SDS011;11836;51.050;3.716;2023-03-23T17:27:59;4.65;;;1.60;;
23328;SDS011;11836;51.050;3.716;2023-03-23T17:30:28;3.90;;;1.40;;
23328;SDS011;11836;51.050;3.716;2023-03-23T17:32:56;5.13;;;1.73;;
23328;SDS011;11836;51.050;3.716;2023-03-23T17:35:25;3.30;;;1.50;;
23328;SDS011;11836;51.050;3.716;2023-03-23T17:37:57;5.50;;;1.85;;
23328;SDS011;11836;51.050;3.716;2023-03-23T17:40:28;4.55;;;1.63;;
23328;SDS011;11836;51.050;3.716;2023-03-23T17:42:54;7.25;;;1.80;;
23328;SDS011;11836;51.050;3.716;2023-03-23T17:45:23;7.75;;;1.98;;
23328;SDS011;11836;51.050;3.716;2023-03-23T17:47:52;4.35;;;1.58;;
23328;SDS011;11836;51.050;3.716;2023-03-23T17:50:18;5.32;;;1.60;;
23328;SDS011;11836;51.050;3.716;2023-03-23T17:52:45;4.68;;;1.50;;
23328;SDS011;11836;51.050;3.716;2023-03-23T17:55:20;4.50;;;1.60;;
23328;SDS011;11836;51.050;3.716;2023-03-23T17:57:46;4.82;;;1.52;;